createdAt,value
2022-10-18T04:40:10.133Z,3.80
2022-10-18T04:42:47.516Z,4.53
2022-10-18T04:45:15.089Z,5.10
2022-10-18T04:47:45.606Z,4.38
2022-10-18T04:50:45.979Z,4.07
2022-10-18T04:53:18.175Z,4.60
2022-10-18T04:55:49.062Z,5.00
2022-10-18T04:58:18.866Z,4.90
2022-10-18T05:00:55.389Z,5.10
2022-10-18T05:03:36.528Z,5.28
2022-10-18T05:06:13.397Z,5.05
2022-10-18T05:08:40.775Z,4.00
2022-10-18T05:11:29.685Z,4.93
2022-10-18T05:14:14.381Z,5.65
2022-10-18T05:16:43.273Z,5.93
2022-10-18T05:19:10.935Z,4.80
2022-10-18T05:22:30.871Z,4.63
2022-10-18T05:24:59.340Z,7.38
2022-10-18T05:27:30.220Z,7.43
2022-10-18T05:30:04.601Z,6.60
2022-10-18T05:32:33.164Z,6.30
2022-10-18T05:35:00.443Z,5.57
2022-10-18T05:37:28.490Z,5.80
2022-10-18T05:39:59.410Z,5.85
2022-10-18T05:42:26.908Z,5.68
2022-10-18T05:44:53.907Z,5.53
2022-10-18T05:47:20.738Z,5.05
2022-10-18T05:49:47.890Z,5.25
2022-10-18T05:52:14.936Z,5.40
2022-10-18T05:54:58.256Z,5.18
2022-10-18T05:57:26.036Z,5.53
2022-10-18T05:59:54.194Z,6.00
2022-10-18T06:02:21.102Z,5.80
2022-10-18T06:04:48.041Z,5.32
2022-10-18T06:07:14.921Z,6.00
2022-10-18T06:09:41.936Z,5.75
2022-10-18T06:12:09.102Z,6.15
2022-10-18T06:14:37.292Z,6.53
2022-10-18T06:17:04.589Z,6.85
2022-10-18T06:19:35.893Z,6.60
2022-10-18T06:22:02.777Z,6.28
2022-10-18T06:24:29.975Z,6.40
2022-10-18T06:26:57.677Z,6.30
2022-10-18T06:29:30.811Z,6.38
2022-10-18T06:31:57.959Z,6.10
2022-10-18T06:34:25.017Z,7.03
2022-10-18T06:36:55.009Z,6.57
2022-10-18T06:39:25.728Z,6.90
2022-10-18T06:41:52.864Z,6.03
2022-10-18T06:44:22.911Z,7.20
2022-10-18T06:46:49.959Z,7.50
2022-10-18T06:49:19.075Z,7.05
2022-10-18T06:51:46.490Z,8.57
2022-10-18T06:54:18.137Z,7.72
2022-10-18T06:56:46.003Z,8.02
2022-10-18T06:59:13.061Z,9.73
2022-10-18T07:01:40.040Z,8.77
2022-10-18T07:04:07.251Z,9.40
2022-10-18T07:06:34.162Z,9.57
2022-10-18T07:09:02.931Z,8.95
2022-10-18T07:11:29.856Z,9.18
2022-10-18T07:14:31.772Z,9.32
2022-10-18T07:17:00.160Z,9.05
2022-10-18T07:19:27.218Z,11.07
2022-10-18T07:21:54.178Z,11.40
2022-10-18T07:24:21.029Z,11.50
2022-10-18T07:26:48.002Z,12.52
2022-10-18T07:29:15.016Z,12.02
2022-10-18T07:31:42.495Z,13.18
2022-10-18T07:34:13.191Z,13.70
2022-10-18T07:36:41.174Z,14.13
2022-10-18T07:39:56.128Z,16.30
2022-10-18T07:42:23.427Z,15.82
2022-10-18T07:44:50.625Z,16.20
2022-10-18T07:47:18.107Z,16.98
2022-10-18T07:49:45.034Z,15.93
2022-10-18T07:52:12.814Z,14.82
2022-10-18T07:54:39.973Z,15.68
2022-10-18T07:57:07.023Z,16.27
2022-10-18T07:59:33.970Z,17.23
2022-10-18T08:02:01.393Z,16.67
2022-10-18T08:04:28.508Z,16.88
2022-10-18T08:06:55.569Z,16.58
2022-10-18T08:10:10.455Z,15.82
2022-10-18T08:17:04.010Z,16.88
2022-10-18T08:19:31.020Z,18.13
2022-10-18T08:21:57.899Z,19.02
2022-10-18T08:24:24.926Z,21.13
2022-10-18T08:26:51.746Z,18.63
2022-10-18T08:29:23.862Z,21.05
2022-10-18T08:31:51.536Z,19.48
2022-10-18T08:34:19.785Z,20.08
2022-10-18T08:36:47.105Z,20.50
2022-10-18T08:39:14.018Z,19.88
2022-10-18T08:42:22.513Z,21.02
2022-10-18T08:44:52.034Z,19.70
2022-10-18T08:47:26.535Z,20.33
2022-10-18T08:50:02.077Z,20.10
2022-10-18T08:52:53.270Z,19.63
2022-10-18T08:55:20.114Z,19.58
2022-10-18T08:57:48.893Z,20.73
2022-10-18T09:00:22.872Z,19.15
2022-10-18T09:03:31.951Z,19.65
2022-10-18T09:06:23.914Z,19.17
2022-10-18T09:09:24.781Z,19.77
2022-10-18T09:12:45.260Z,21.55
2022-10-18T09:15:42.572Z,19.05
2022-10-18T09:18:23.412Z,16.58
2022-10-18T09:20:59.794Z,15.50
2022-10-18T09:23:49.896Z,14.27
2022-10-18T09:26:26.000Z,14.80
2022-10-18T09:29:55.564Z,14.52
2022-10-18T09:32:37.201Z,13.50
2022-10-18T09:35:28.928Z,14.60
2022-10-18T09:38:08.406Z,14.05
2022-10-18T09:40:46.996Z,13.15
2022-10-18T09:43:52.097Z,12.27
2022-10-18T09:46:23.592Z,12.98
2022-10-18T09:49:02.295Z,13.63
2022-10-18T09:51:36.914Z,12.88
2022-10-18T09:54:24.458Z,12.63
2022-10-18T09:57:04.272Z,13.40
2022-10-18T09:59:48.224Z,14.38
2022-10-18T10:02:22.175Z,14.23
2022-10-18T10:04:51.136Z,12.98
2022-10-18T10:07:41.070Z,15.05
2022-10-18T10:10:25.166Z,12.90
2022-10-18T10:13:17.097Z,13.07
2022-10-18T10:19:55.398Z,14.20
2022-10-18T10:22:39.021Z,11.77
2022-10-18T10:25:25.683Z,10.57
2022-10-18T10:27:53.957Z,10.38
2022-10-18T10:30:32.557Z,10.52
2022-10-18T10:32:59.622Z,10.32
2022-10-18T10:38:31.228Z,9.05
2022-10-18T10:40:59.782Z,10.35
2022-10-18T10:43:40.342Z,9.13
2022-10-18T10:58:26.580Z,9.15
2022-10-18T11:00:55.217Z,8.25
2022-10-18T11:03:30.971Z,8.38
2022-10-18T11:06:02.106Z,7.30
2022-10-18T11:08:41.339Z,7.10
2022-10-18T11:11:28.529Z,6.07
2022-10-18T11:14:26.570Z,5.03
2022-10-18T11:17:14.451Z,5.50
2022-10-18T11:20:24.942Z,5.28
2022-10-18T11:23:07.295Z,5.40
2022-10-18T11:26:23.989Z,4.80
2022-10-18T11:29:54.374Z,5.45
2022-10-18T11:33:20.632Z,5.55
2022-10-18T11:36:20.601Z,6.30
2022-10-18T11:39:09.751Z,6.35
2022-10-18T11:41:43.684Z,6.25
2022-10-18T11:44:54.436Z,6.40
2022-10-18T11:48:12.679Z,6.30
2022-10-18T11:50:49.024Z,7.00
2022-10-18T11:53:55.107Z,6.00
2022-10-18T11:59:32.830Z,5.55
2022-10-18T12:02:51.526Z,4.95
2022-10-18T12:05:23.518Z,4.78
2022-10-18T12:08:20.022Z,5.63
2022-10-18T12:11:05.470Z,5.50
2022-10-18T12:14:35.402Z,5.28
2022-10-18T12:17:41.665Z,5.03
2022-10-18T12:20:16.330Z,4.45
2022-10-18T12:23:34.636Z,4.85
2022-10-18T12:26:06.765Z,4.15
2022-10-18T12:29:14.113Z,4.43
2022-10-18T12:31:54.782Z,4.72
2022-10-18T12:34:21.541Z,4.13
2022-10-18T12:38:09.632Z,4.60
2022-10-18T12:40:45.998Z,5.18
2022-10-18T12:43:34.132Z,4.55
2022-10-18T12:46:04.094Z,5.18
2022-10-18T12:48:45.358Z,4.90
2022-10-18T12:51:20.916Z,4.72
2022-10-18T12:54:36.907Z,5.45
2022-10-18T12:57:23.825Z,4.95
2022-10-18T12:59:51.034Z,4.38
2022-10-18T13:02:26.522Z,3.90
2022-10-18T13:04:53.708Z,3.90
2022-10-18T13:08:03.276Z,2.92
2022-10-18T13:10:35.535Z,3.25
2022-10-18T13:24:06.176Z,2.38
2022-10-18T13:30:59.203Z,2.92
2022-10-18T13:33:41.868Z,2.50
2022-10-18T13:36:24.156Z,2.42
2022-10-18T13:42:01.037Z,2.72
2022-10-18T13:44:40.027Z,2.00
2022-10-18T13:47:49.522Z,2.20
2022-10-18T14:00:36.845Z,1.98
2022-10-18T14:03:56.376Z,2.45
2022-10-18T14:06:33.663Z,2.08
2022-10-18T14:09:43.694Z,1.65
2022-10-18T14:15:31.862Z,1.50
2022-10-18T14:24:24.275Z,1.55
2022-10-18T14:27:16.754Z,1.80
2022-10-18T14:29:44.064Z,1.33
2022-10-18T14:32:31.749Z,1.73
2022-10-18T14:35:30.752Z,1.65
2022-10-18T14:37:49.799Z,1.42
2022-10-18T14:40:38.848Z,1.77
2022-10-18T14:43:15.573Z,1.50
2022-10-18T14:45:42.846Z,2.00
2022-10-18T14:48:21.376Z,1.50
2022-10-18T14:51:00.203Z,1.42
2022-10-18T14:53:34.510Z,1.60
2022-10-18T14:56:07.233Z,1.60
2022-10-18T14:58:37.918Z,1.40
2022-10-18T15:01:06.166Z,1.58
2022-10-18T15:03:35.904Z,1.20
2022-10-18T15:06:05.714Z,1.13
2022-10-18T15:08:43.877Z,1.52
2022-10-18T15:11:15.517Z,1.27
2022-10-18T15:14:11.011Z,1.90
2022-10-18T15:16:42.314Z,1.50
2022-10-18T15:19:15.305Z,1.52
2022-10-18T15:22:19.744Z,1.42
2022-10-18T15:24:44.315Z,1.35
2022-10-18T15:27:24.002Z,1.20
2022-10-18T15:39:48.875Z,1.25
2022-10-18T16:02:33.825Z,0.80
2022-10-18T16:05:03.660Z,1.40
2022-10-18T16:07:31.666Z,1.58
2022-10-18T16:09:58.909Z,1.50
2022-10-18T16:12:25.931Z,1.00
2022-10-18T16:14:52.733Z,1.27
2022-10-18T16:17:19.571Z,1.40
2022-10-18T16:19:46.373Z,1.38
2022-10-18T16:24:46.095Z,1.65
2022-10-18T16:27:12.943Z,1.13
2022-10-18T16:29:41.669Z,1.00
2022-10-18T16:32:08.693Z,1.00
2022-10-18T16:34:36.215Z,1.90
2022-10-18T16:37:03.321Z,1.48
2022-10-18T16:39:34.828Z,1.25
2022-10-18T16:42:01.816Z,1.30
2022-10-18T16:44:28.703Z,1.30
2022-10-18T16:46:56.292Z,1.23
2022-10-18T16:49:26.637Z,1.55
2022-10-18T16:51:54.562Z,1.38
2022-10-18T16:54:21.606Z,1.40
2022-10-18T16:56:50.042Z,1.67
2022-10-18T16:59:26.922Z,1.48
2022-10-18T17:01:53.930Z,1.60
2022-10-18T17:04:20.782Z,2.22
2022-10-18T17:06:49.087Z,2.05
2022-10-18T17:09:16.561Z,1.88
2022-10-18T17:11:43.579Z,2.28
2022-10-18T17:14:10.402Z,1.73
2022-10-18T17:16:38.938Z,2.20
2022-10-18T17:19:10.496Z,2.05
2022-10-18T17:21:37.991Z,1.95
2022-10-18T17:24:06.139Z,1.73
2022-10-18T17:26:34.239Z,1.85
2022-10-18T17:29:05.840Z,2.42
2022-10-18T17:31:33.832Z,1.90
2022-10-18T17:34:01.896Z,1.60
2022-10-18T17:36:31.544Z,1.88
2022-10-18T17:38:58.893Z,1.90
2022-10-18T17:41:26.198Z,2.22
2022-10-18T17:43:53.149Z,2.20
2022-10-18T17:46:20.338Z,2.05
2022-10-18T17:48:48.285Z,1.77
2022-10-18T17:51:17.829Z,1.90
2022-10-18T17:53:45.694Z,1.77
2022-10-18T17:56:14.257Z,2.22
2022-10-18T17:58:45.759Z,2.22
2022-10-18T18:01:20.985Z,3.00
2022-10-18T18:03:48.827Z,3.28
2022-10-18T18:06:30.856Z,4.95
2022-10-18T18:09:01.013Z,8.45
2022-10-18T18:11:29.415Z,8.80
2022-10-18T18:13:56.936Z,8.25
2022-10-18T18:16:28.403Z,6.78
2022-10-18T18:18:58.408Z,6.15
2022-10-18T18:21:28.061Z,5.25
2022-10-18T18:23:57.370Z,4.40
2022-10-18T18:26:26.056Z,5.47
2022-10-18T18:28:57.455Z,7.32
2022-10-18T18:31:28.410Z,5.97
2022-10-18T18:33:59.076Z,5.82
2022-10-18T18:36:29.179Z,6.05
2022-10-18T18:38:58.684Z,6.97
2022-10-18T18:41:31.199Z,6.22
2022-10-18T18:44:09.113Z,9.63
2022-10-18T18:46:38.738Z,7.80
2022-10-18T18:49:08.490Z,9.10
2022-10-18T18:51:40.267Z,9.55
2022-10-18T18:54:22.111Z,9.00
2022-10-18T18:56:53.352Z,8.57
2022-10-18T18:59:30.410Z,7.78
2022-10-18T19:02:14.832Z,8.13
2022-10-18T19:04:46.303Z,7.13
2022-10-18T19:07:17.030Z,8.63
2022-10-18T19:09:54.317Z,7.63
2022-10-18T19:12:29.856Z,7.80
2022-10-18T19:15:02.965Z,7.43
2022-10-18T19:17:30.848Z,6.30
2022-10-18T19:20:06.538Z,6.63
2022-10-18T19:22:38.604Z,6.65
2022-10-18T19:25:11.255Z,6.25
2022-10-18T19:27:53.245Z,5.93
2022-10-18T19:30:26.108Z,6.20
2022-10-18T19:33:02.727Z,5.72
2022-10-18T19:35:35.622Z,5.53
2022-10-18T19:38:05.852Z,5.47
2022-10-18T19:40:38.755Z,6.05
2022-10-18T19:43:06.862Z,5.68
2022-10-18T19:45:34.514Z,5.00
2022-10-18T19:48:02.051Z,5.43
2022-10-18T19:50:29.684Z,5.00
2022-10-18T19:53:02.705Z,4.50
2022-10-18T19:55:33.320Z,5.07
2022-10-18T19:58:12.901Z,4.95
2022-10-18T20:00:41.226Z,5.25
2022-10-18T20:03:16.556Z,4.35
2022-10-18T20:05:47.498Z,4.05
2022-10-18T20:08:20.605Z,4.03
2022-10-18T20:10:57.307Z,3.67
2022-10-18T20:13:31.422Z,3.38
2022-10-18T20:16:02.561Z,3.35
2022-10-18T20:18:34.587Z,3.65
2022-10-18T20:21:20.883Z,3.38
2022-10-18T20:23:51.456Z,2.78
2022-10-18T20:26:21.602Z,2.50
2022-10-18T20:29:00.328Z,3.00
2022-10-18T20:31:35.706Z,2.70
2022-10-18T20:34:06.876Z,2.33
2022-10-18T20:36:35.535Z,2.65
2022-10-18T20:39:04.633Z,2.60
2022-10-18T20:41:41.083Z,1.95
2022-10-18T20:44:14.778Z,2.63
2022-10-18T20:46:43.851Z,1.98
2022-10-18T20:49:16.890Z,1.92
2022-10-18T20:51:47.061Z,2.60
2022-10-18T20:54:14.626Z,2.83
2022-10-18T20:56:45.168Z,2.60
2022-10-18T20:59:15.588Z,2.78
2022-10-18T21:01:45.544Z,2.30
2022-10-18T21:04:19.208Z,2.50
2022-10-18T21:07:16.590Z,2.22
2022-10-18T21:09:50.431Z,2.40
2022-10-18T21:12:18.438Z,2.47
2022-10-18T21:14:46.454Z,2.42
2022-10-18T21:17:15.708Z,2.83
2022-10-18T21:19:42.978Z,2.38
2022-10-18T21:22:10.054Z,2.45
2022-10-18T21:24:37.199Z,1.90
2022-10-18T21:27:04.192Z,2.20
2022-10-18T21:29:31.170Z,2.85
2022-10-18T21:31:59.554Z,2.25
2022-10-18T21:34:26.647Z,2.20
2022-10-18T21:36:53.768Z,1.80
2022-10-18T21:41:51.475Z,2.42
2022-10-18T21:44:18.721Z,2.20
2022-10-18T21:46:46.784Z,2.20
2022-10-18T21:49:15.671Z,2.40
2022-10-18T21:51:43.348Z,2.58
2022-10-18T21:54:16.144Z,6.80
2022-10-18T21:56:43.528Z,6.82
2022-10-18T21:59:14.305Z,4.00
2022-10-18T22:01:44.191Z,3.55
2022-10-18T22:04:24.864Z,3.25
2022-10-18T22:06:52.249Z,3.10
2022-10-18T22:09:21.129Z,3.13
2022-10-18T22:11:52.703Z,2.70
2022-10-18T22:14:21.014Z,3.22
2022-10-18T22:16:48.472Z,2.67
2022-10-18T22:19:15.639Z,2.65
2022-10-18T22:21:42.722Z,3.13
2022-10-18T22:24:10.160Z,3.00
2022-10-18T22:27:09.668Z,3.20
2022-10-18T22:29:36.972Z,5.50
2022-10-18T22:32:04.096Z,7.97
2022-10-18T22:34:31.101Z,6.20
2022-10-18T22:36:58.237Z,5.25
2022-10-18T22:39:25.631Z,4.40
2022-10-18T22:41:55.848Z,4.00
2022-10-18T22:44:23.431Z,4.68
2022-10-18T22:46:50.475Z,4.50
2022-10-18T22:49:18.002Z,4.03
2022-10-18T22:51:45.074Z,3.20
2022-10-18T22:54:12.185Z,3.40
2022-10-18T22:56:39.291Z,3.53
2022-10-18T22:59:06.280Z,3.47
2022-10-18T23:01:33.216Z,3.00
2022-10-18T23:04:01.550Z,3.13
2022-10-18T23:06:35.676Z,3.38
2022-10-18T23:09:07.832Z,4.43
2022-10-18T23:11:36.942Z,4.15
2022-10-18T23:14:08.231Z,4.38
2022-10-18T23:16:35.971Z,4.00
2022-10-18T23:19:03.129Z,3.70
2022-10-18T23:21:30.006Z,3.72
2022-10-18T23:23:57.652Z,3.30
2022-10-18T23:26:27.599Z,3.50
2022-10-18T23:28:55.378Z,3.25
2022-10-18T23:31:32.862Z,2.63
2022-10-18T23:34:03.603Z,3.40
2022-10-18T23:36:32.322Z,3.22
2022-10-18T23:38:59.564Z,3.85
2022-10-18T23:41:26.721Z,3.53
2022-10-18T23:43:54.126Z,3.47
2022-10-18T23:46:22.200Z,3.58
2022-10-18T23:48:49.790Z,3.60
2022-10-18T23:51:18.148Z,3.10
2022-10-18T23:53:45.354Z,3.20
2022-10-18T23:56:15.715Z,3.00
2022-10-18T23:58:44.318Z,2.80
